createdAt,value
2023-12-23T00:00:28.258Z,6.30
2023-12-23T00:01:31.462Z,4.70
2023-12-23T00:02:37.030Z,5.30
2023-12-23T00:03:47.165Z,7.90
2023-12-23T00:04:52.738Z,5.20
2023-12-23T00:05:58.623Z,7.60
2023-12-23T00:07:02.272Z,7.60
2023-12-23T00:08:07.331Z,7.20
2023-12-23T00:09:12.423Z,7.80
2023-12-23T00:10:22.374Z,6.40
2023-12-23T00:11:26.415Z,6.40
2023-12-23T00:12:34.206Z,6.40
2023-12-23T00:13:43.241Z,5.70
2023-12-23T00:14:50.139Z,4.00
2023-12-23T00:15:59.211Z,5.50
2023-12-23T00:17:05.016Z,7.50
2023-12-23T00:18:10.275Z,4.50
2023-12-23T00:19:15.685Z,6.60
2023-12-23T00:20:24.143Z,7.90
2023-12-23T00:21:30.750Z,8.60
2023-12-23T00:22:39.318Z,7.20
2023-12-23T00:23:43.705Z,9.00
2023-12-23T00:24:56.279Z,7.20
2023-12-23T00:26:03.325Z,7.60
2023-12-23T00:27:07.110Z,5.10
2023-12-23T00:28:22.267Z,7.90
2023-12-23T00:29:28.487Z,3.40
2023-12-23T00:30:34.956Z,5.30
2023-12-23T00:31:38.494Z,5.70
2023-12-23T00:32:42.707Z,4.20
2023-12-23T00:33:50.957Z,7.10
2023-12-23T00:35:00.566Z,5.10
2023-12-23T00:36:10.049Z,5.00
2023-12-23T00:37:18.687Z,5.90
2023-12-23T00:38:26.149Z,6.20
2023-12-23T00:39:33.548Z,5.80
2023-12-23T00:40:40.175Z,7.10
2023-12-23T00:41:43.174Z,5.00
2023-12-23T00:42:48.289Z,4.27
2023-12-23T00:43:56.059Z,4.60
2023-12-23T00:46:27.987Z,4.10
2023-12-23T00:47:37.480Z,7.80
2023-12-23T00:48:57.709Z,4.40
2023-12-23T00:50:05.188Z,6.60
2023-12-23T00:51:17.812Z,4.60
2023-12-23T00:52:22.847Z,6.40
2023-12-23T00:53:26.561Z,9.10
2023-12-23T00:54:32.653Z,5.80
2023-12-23T00:55:37.436Z,4.90
2023-12-23T00:56:49.037Z,6.50
2023-12-23T00:57:56.576Z,8.10
2023-12-23T00:59:00.646Z,7.30
2023-12-23T01:00:07.357Z,4.20
2023-12-23T01:01:11.256Z,4.80
2023-12-23T01:02:18.024Z,6.20
2023-12-23T01:03:26.261Z,4.30
2023-12-23T01:04:31.534Z,9.70
2023-12-23T01:05:37.596Z,14.60
2023-12-23T01:06:49.028Z,7.20
2023-12-23T01:07:56.721Z,10.50
2023-12-23T01:09:01.380Z,7.00
2023-12-23T01:10:08.815Z,8.50
2023-12-23T01:11:15.116Z,8.30
2023-12-23T01:12:20.088Z,6.60
2023-12-23T01:13:27.858Z,5.20
2023-12-23T01:14:32.041Z,6.20
2023-12-23T01:15:35.841Z,6.30
2023-12-23T01:16:42.057Z,7.20
2023-12-23T01:17:55.911Z,4.30
2023-12-23T01:19:02.260Z,7.90
2023-12-23T01:20:08.942Z,4.20
2023-12-23T01:21:14.241Z,5.50
2023-12-23T01:22:19.531Z,7.00
2023-12-23T01:23:24.512Z,7.60
2023-12-23T01:24:29.795Z,7.50
2023-12-23T01:25:37.213Z,9.90
2023-12-23T01:26:52.919Z,9.20
2023-12-23T01:27:59.945Z,9.90
2023-12-23T01:29:04.940Z,10.60
2023-12-23T01:30:10.210Z,13.20
2023-12-23T01:31:16.856Z,9.50
2023-12-23T01:32:23.132Z,11.00
2023-12-23T01:33:29.492Z,8.70
2023-12-23T01:34:38.007Z,10.10
2023-12-23T01:35:42.090Z,7.00
2023-12-23T01:36:55.017Z,8.60
2023-12-23T01:38:03.161Z,8.60
2023-12-23T01:39:08.334Z,10.70
2023-12-23T01:40:15.358Z,8.90
2023-12-23T01:41:19.335Z,8.10
2023-12-23T01:42:29.683Z,2.90
2023-12-23T01:43:36.244Z,6.80
2023-12-23T01:44:42.184Z,6.20
2023-12-23T01:45:49.273Z,5.50
2023-12-23T01:46:56.286Z,3.90
2023-12-23T01:48:04.154Z,7.60
2023-12-23T01:49:11.643Z,8.20
2023-12-23T01:50:21.422Z,2.60
2023-12-23T01:51:35.304Z,5.80
2023-12-23T01:52:42.815Z,3.00
2023-12-23T01:53:46.729Z,5.50
2023-12-23T01:54:51.649Z,4.80
2023-12-23T01:55:59.611Z,4.40
2023-12-23T01:57:06.621Z,5.20
2023-12-23T01:58:15.784Z,2.70
2023-12-23T01:59:26.910Z,3.40
2023-12-23T02:00:37.405Z,4.20
2023-12-23T02:01:45.703Z,1.00
2023-12-23T02:02:52.822Z,3.10
2023-12-23T02:03:58.836Z,3.40
2023-12-23T02:05:19.319Z,3.60
2023-12-23T02:06:27.115Z,5.30
2023-12-23T02:07:32.468Z,3.90
2023-12-23T02:08:36.810Z,2.90
2023-12-23T02:09:46.749Z,4.00
2023-12-23T02:10:55.809Z,4.80
2023-12-23T02:12:23.152Z,4.70
2023-12-23T02:13:33.922Z,2.70
2023-12-23T02:15:45.673Z,4.50
2023-12-23T02:16:49.686Z,6.20
2023-12-23T02:18:01.637Z,6.60
2023-12-23T02:19:04.122Z,2.90
2023-12-23T02:20:08.377Z,3.70
2023-12-23T02:21:10.655Z,4.70
2023-12-23T02:22:12.884Z,2.90
2023-12-23T02:23:15.613Z,4.00
2023-12-23T02:24:18.952Z,4.60
2023-12-23T02:25:22.412Z,4.10
2023-12-23T02:26:29.660Z,3.50
2023-12-23T02:28:48.568Z,4.70
2023-12-23T02:29:52.530Z,5.60
2023-12-23T02:30:57.733Z,4.40
2023-12-23T02:32:02.386Z,5.30
2023-12-23T02:33:05.372Z,4.00
2023-12-23T02:34:08.785Z,6.60
2023-12-23T02:35:13.547Z,3.60
2023-12-23T02:36:21.262Z,3.90
2023-12-23T02:37:25.424Z,3.00
2023-12-23T02:38:28.170Z,4.50
2023-12-23T02:39:30.273Z,3.50
2023-12-23T02:40:33.576Z,5.30
2023-12-23T02:41:35.837Z,2.90
2023-12-23T02:42:38.232Z,2.50
2023-12-23T02:43:40.370Z,4.70
2023-12-23T02:44:43.031Z,5.00
2023-12-23T02:45:45.346Z,3.40
2023-12-23T02:46:49.501Z,4.90
2023-12-23T02:47:52.623Z,3.10
2023-12-23T02:48:55.232Z,2.00
2023-12-23T02:49:57.514Z,4.40
2023-12-23T02:50:59.951Z,3.70
2023-12-23T02:52:02.247Z,2.60
2023-12-23T02:53:04.624Z,2.50
2023-12-23T02:54:06.799Z,3.00
2023-12-23T02:55:08.916Z,2.20
2023-12-23T02:56:11.975Z,3.20
2023-12-23T02:57:14.510Z,3.40
2023-12-23T02:58:16.862Z,2.40
2023-12-23T02:59:19.033Z,2.70
2023-12-23T03:00:22.398Z,2.40
2023-12-23T03:01:24.929Z,3.40
2023-12-23T03:02:27.246Z,4.90
2023-12-23T03:03:29.678Z,2.50
2023-12-23T03:04:32.013Z,4.70
2023-12-23T03:05:34.589Z,3.40
2023-12-23T03:06:38.149Z,3.20
2023-12-23T03:07:40.703Z,4.30
2023-12-23T03:08:43.656Z,4.70
2023-12-23T03:09:46.585Z,4.10
2023-12-23T03:10:50.113Z,3.70
2023-12-23T03:11:52.523Z,4.30
2023-12-23T03:12:55.007Z,8.20
2023-12-23T03:13:57.428Z,4.20
2023-12-23T03:14:59.937Z,5.80
2023-12-23T03:16:02.461Z,6.30
2023-12-23T03:17:04.805Z,5.40
2023-12-23T03:18:07.194Z,4.60
2023-12-23T03:19:10.901Z,2.90
2023-12-23T03:20:14.193Z,6.30
2023-12-23T03:21:16.469Z,3.70
2023-12-23T03:22:18.978Z,3.90
2023-12-23T03:23:21.566Z,3.90
2023-12-23T03:24:24.319Z,3.30
2023-12-23T03:25:26.526Z,3.50
2023-12-23T03:26:30.687Z,3.50
2023-12-23T03:27:32.825Z,3.50
2023-12-23T03:28:35.045Z,3.10
2023-12-23T03:29:38.109Z,3.90
2023-12-23T03:30:41.984Z,3.10
2023-12-23T03:31:44.457Z,2.70
2023-12-23T03:32:46.789Z,5.10
2023-12-23T03:33:49.425Z,2.40
2023-12-23T03:34:51.544Z,3.40
2023-12-23T03:35:56.093Z,3.10
2023-12-23T03:36:58.325Z,3.70
2023-12-23T03:38:00.842Z,4.67
2023-12-23T03:39:03.595Z,2.60
2023-12-23T03:40:07.502Z,4.00
2023-12-23T03:41:13.026Z,4.50
2023-12-23T03:42:15.273Z,5.20
2023-12-23T03:43:17.261Z,3.90
2023-12-23T03:44:21.201Z,3.70
2023-12-23T03:45:23.502Z,3.20
2023-12-23T03:46:27.887Z,6.80
2023-12-23T03:47:30.197Z,3.10
2023-12-23T03:48:32.970Z,3.60
2023-12-23T03:49:36.460Z,5.50
2023-12-23T03:50:40.619Z,4.40
2023-12-23T03:51:42.758Z,4.10
2023-12-23T03:52:45.925Z,5.20
2023-12-23T03:53:48.165Z,3.00
2023-12-23T03:54:50.200Z,3.00
2023-12-23T03:55:52.293Z,1.50
2023-12-23T03:56:55.269Z,2.80
2023-12-23T03:57:57.717Z,2.82
2023-12-23T03:59:00.586Z,3.80
2023-12-23T04:01:15.266Z,6.00
2023-12-23T04:02:17.579Z,3.40
2023-12-23T04:03:20.299Z,5.30
2023-12-23T04:04:22.692Z,2.60
2023-12-23T04:05:25.136Z,4.40
2023-12-23T04:06:28.374Z,3.30
2023-12-23T04:07:30.951Z,3.40
2023-12-23T04:08:33.458Z,2.30
2023-12-23T04:09:35.903Z,1.40
2023-12-23T04:10:38.668Z,4.30
2023-12-23T04:11:41.156Z,2.40
2023-12-23T04:12:43.793Z,2.60
2023-12-23T04:13:45.944Z,2.20
2023-12-23T04:14:48.152Z,2.30
2023-12-23T04:15:50.604Z,3.40
2023-12-23T04:16:53.974Z,3.73
2023-12-23T04:17:56.951Z,4.20
2023-12-23T04:18:59.240Z,5.30
2023-12-23T04:20:01.741Z,2.50
2023-12-23T04:21:05.201Z,4.80
2023-12-23T04:22:08.057Z,3.30
2023-12-23T04:23:10.236Z,3.40
2023-12-23T04:24:12.652Z,2.30
2023-12-23T04:25:15.458Z,2.90
2023-12-23T04:26:19.627Z,2.20
2023-12-23T04:27:22.032Z,3.00
2023-12-23T04:28:24.261Z,2.60
2023-12-23T04:29:26.726Z,3.00
2023-12-23T04:30:29.631Z,3.27
2023-12-23T04:31:32.349Z,2.40
2023-12-23T04:32:34.852Z,3.40
2023-12-23T04:33:37.534Z,3.70
2023-12-23T04:34:39.934Z,2.50
2023-12-23T04:35:42.237Z,3.20
2023-12-23T04:36:44.860Z,2.80
2023-12-23T04:37:47.256Z,2.60
2023-12-23T04:38:49.873Z,2.70
2023-12-23T04:39:52.112Z,3.00
2023-12-23T04:40:54.725Z,5.30
2023-12-23T04:41:57.685Z,4.00
2023-12-23T04:42:59.881Z,4.36
2023-12-23T04:44:03.310Z,3.70
2023-12-23T04:45:06.326Z,4.30
2023-12-23T04:46:10.885Z,2.80
2023-12-23T04:47:13.264Z,3.50
2023-12-23T04:48:15.746Z,3.80
2023-12-23T04:49:18.194Z,5.40
2023-12-23T04:50:21.712Z,4.82
2023-12-23T04:51:24.068Z,3.73
2023-12-23T04:52:26.674Z,4.80
2023-12-23T04:53:29.393Z,3.10
2023-12-23T04:54:31.882Z,3.70
2023-12-23T04:55:33.964Z,2.90
2023-12-23T04:56:36.859Z,5.60
2023-12-23T04:57:39.076Z,3.60
2023-12-23T04:58:41.370Z,4.30
2023-12-23T04:59:43.727Z,4.90
2023-12-23T05:00:47.135Z,5.60
2023-12-23T05:01:50.401Z,4.70
2023-12-23T05:02:53.095Z,2.90
2023-12-23T05:03:55.522Z,4.30
2023-12-23T05:04:57.824Z,3.90
2023-12-23T05:06:00.626Z,4.90
2023-12-23T05:07:03.532Z,4.55
2023-12-23T05:08:06.328Z,4.45
2023-12-23T05:09:08.749Z,4.00
2023-12-23T05:10:12.803Z,4.90
2023-12-23T05:11:16.303Z,4.30
2023-12-23T05:12:19.122Z,4.40
2023-12-23T05:13:21.309Z,6.60
2023-12-23T05:14:23.493Z,3.20
2023-12-23T05:15:26.141Z,7.00
2023-12-23T05:16:30.602Z,3.90
2023-12-23T05:17:33.514Z,6.00
2023-12-23T05:18:36.300Z,9.18
2023-12-23T05:19:40.656Z,9.40
2023-12-23T05:20:43.176Z,10.40
2023-12-23T05:21:45.910Z,8.60
2023-12-23T05:22:48.488Z,7.90
2023-12-23T05:23:50.940Z,7.90
2023-12-23T05:24:53.276Z,6.70
2023-12-23T05:25:55.740Z,4.00
2023-12-23T05:27:00.141Z,6.70
2023-12-23T05:28:02.532Z,4.00
2023-12-23T05:29:05.267Z,4.10
2023-12-23T05:30:09.605Z,3.80
2023-12-23T05:31:12.185Z,5.00
2023-12-23T05:32:16.537Z,4.10
2023-12-23T05:34:43.258Z,3.40
2023-12-23T05:35:52.207Z,4.40
2023-12-23T05:37:09.869Z,6.70
2023-12-23T05:38:27.874Z,4.20
2023-12-23T05:39:32.548Z,3.20
2023-12-23T05:40:36.775Z,3.80
2023-12-23T05:41:48.516Z,3.20
2023-12-23T05:43:13.404Z,4.30
2023-12-23T05:44:34.865Z,3.20
2023-12-23T05:45:45.300Z,4.40
2023-12-23T05:46:50.136Z,4.50
2023-12-23T05:47:58.425Z,3.00
2023-12-23T05:49:01.798Z,3.40
2023-12-23T05:50:05.929Z,2.80
2023-12-23T05:51:11.715Z,5.30
2023-12-23T05:52:19.654Z,3.90
2023-12-23T05:53:26.689Z,3.00
2023-12-23T05:54:30.917Z,2.80
2023-12-23T05:55:49.843Z,5.50
2023-12-23T05:56:53.967Z,2.10
2023-12-23T05:58:00.737Z,5.30
2023-12-23T05:59:07.423Z,5.30
2023-12-23T06:00:15.227Z,3.90
2023-12-23T06:02:54.964Z,3.80
2023-12-23T06:03:58.067Z,2.40
2023-12-23T06:05:07.402Z,6.10
2023-12-23T06:06:12.519Z,3.50
2023-12-23T06:07:16.500Z,4.50
2023-12-23T06:08:19.606Z,4.10
2023-12-23T06:09:28.091Z,4.60
2023-12-23T06:10:43.317Z,5.90
2023-12-23T06:11:42.071Z,5.40
2023-12-23T06:12:47.112Z,5.36
2023-12-23T06:13:52.497Z,6.60
2023-12-23T06:14:55.855Z,5.50
2023-12-23T06:16:00.756Z,8.09
2023-12-23T06:17:05.449Z,8.20
2023-12-23T06:18:10.922Z,7.80
2023-12-23T06:19:16.820Z,9.00
2023-12-23T06:20:28.867Z,9.30
2023-12-23T06:21:36.618Z,7.20
2023-12-23T06:22:41.268Z,10.10
2023-12-23T06:23:44.662Z,7.90
2023-12-23T06:24:52.252Z,10.20
2023-12-23T06:25:57.861Z,9.50
2023-12-23T06:27:01.192Z,9.90
2023-12-23T06:28:05.811Z,7.00
2023-12-23T06:29:15.612Z,5.70
2023-12-23T06:30:29.187Z,4.90
2023-12-23T06:31:33.618Z,6.10
2023-12-23T06:32:38.588Z,3.70
2023-12-23T06:33:43.792Z,4.80
2023-12-23T06:34:51.158Z,7.10
2023-12-23T06:35:57.537Z,5.80
2023-12-23T06:37:00.719Z,4.60
2023-12-23T06:38:06.748Z,7.40
2023-12-23T06:39:12.772Z,4.60
2023-12-23T06:40:19.251Z,7.10
2023-12-23T06:41:24.499Z,8.60
2023-12-23T06:42:34.277Z,9.20
2023-12-23T06:43:51.128Z,7.80
2023-12-23T06:44:47.894Z,4.90
2023-12-23T06:45:55.167Z,7.50
2023-12-23T06:46:59.793Z,9.30
2023-12-23T06:48:06.512Z,12.10
2023-12-23T06:49:15.907Z,8.70
2023-12-23T06:50:25.088Z,9.80
2023-12-23T06:51:38.359Z,13.80
2023-12-23T06:52:44.670Z,11.00
2023-12-23T06:53:53.494Z,11.40
2023-12-23T06:54:59.173Z,11.70
2023-12-23T06:56:12.030Z,10.30
2023-12-23T06:57:18.029Z,10.60
2023-12-23T06:58:36.919Z,8.40
2023-12-23T06:59:42.389Z,7.80
2023-12-23T07:00:49.126Z,10.00
2023-12-23T07:01:55.142Z,5.60
2023-12-23T07:03:02.326Z,6.80
2023-12-23T07:04:14.862Z,7.70
2023-12-23T07:05:19.519Z,6.30
2023-12-23T07:06:29.286Z,4.60
2023-12-23T07:07:32.078Z,4.80
2023-12-23T07:08:43.760Z,4.90
2023-12-23T07:09:52.724Z,6.40
2023-12-23T07:10:55.261Z,6.60
2023-12-23T07:12:01.915Z,2.30
2023-12-23T07:13:07.709Z,8.70
2023-12-23T07:14:11.203Z,4.70
2023-12-23T07:15:18.024Z,7.20
2023-12-23T07:16:24.931Z,4.50
2023-12-23T07:17:38.835Z,8.90
2023-12-23T07:18:39.139Z,9.70
2023-12-23T07:19:43.570Z,7.50
2023-12-23T07:20:51.040Z,6.80
2023-12-23T07:21:55.107Z,6.30
2023-12-23T07:23:01.330Z,6.30
2023-12-23T07:24:13.077Z,7.40
2023-12-23T07:25:18.333Z,6.50
2023-12-23T07:26:26.366Z,7.60
2023-12-23T07:27:32.717Z,7.50
2023-12-23T07:28:40.475Z,8.90
2023-12-23T07:29:50.478Z,8.80
2023-12-23T07:30:54.814Z,7.20
2023-12-23T07:32:01.221Z,6.00
2023-12-23T07:34:30.800Z,6.00
2023-12-23T07:35:37.083Z,4.80
2023-12-23T07:36:43.256Z,4.70
2023-12-23T07:37:56.099Z,6.80
2023-12-23T07:39:00.836Z,5.80
2023-12-23T07:40:10.686Z,7.60
2023-12-23T07:41:14.079Z,8.20
2023-12-23T07:42:21.450Z,10.10
2023-12-23T07:43:29.563Z,8.70
2023-12-23T07:44:34.234Z,8.70
2023-12-23T07:45:50.500Z,8.80
2023-12-23T07:46:59.377Z,0.80
2023-12-23T07:48:06.094Z,12.80
2023-12-23T07:49:19.788Z,13.20
2023-12-23T07:50:29.442Z,11.80
2023-12-23T07:51:37.130Z,9.20
2023-12-23T07:52:43.830Z,9.30
2023-12-23T07:53:50.469Z,9.90
2023-12-23T07:54:56.522Z,11.70
2023-12-23T07:56:12.542Z,8.60
2023-12-23T07:57:16.126Z,10.40
2023-12-23T07:58:20.262Z,10.30
2023-12-23T07:59:23.822Z,11.00
2023-12-23T08:00:28.497Z,9.30
2023-12-23T08:01:39.533Z,7.40
2023-12-23T08:02:58.766Z,7.60
2023-12-23T08:04:09.317Z,6.20
2023-12-23T08:05:17.084Z,7.80
2023-12-23T08:06:31.498Z,9.00
2023-12-23T08:07:35.045Z,9.10
2023-12-23T08:08:41.906Z,9.70
2023-12-23T08:09:48.452Z,8.90
2023-12-23T08:11:02.608Z,9.50
2023-12-23T08:12:11.596Z,8.60
2023-12-23T08:13:15.422Z,8.20
2023-12-23T08:15:51.259Z,13.10
2023-12-23T08:16:56.855Z,9.10
2023-12-23T08:18:02.273Z,11.10
2023-12-23T08:20:31.959Z,11.70
2023-12-23T08:21:38.518Z,8.60
2023-12-23T08:22:43.550Z,11.40
2023-12-23T08:23:51.197Z,11.70
2023-12-23T08:24:55.091Z,8.80
2023-12-23T08:25:59.728Z,9.40
2023-12-23T08:27:11.583Z,6.90
2023-12-23T08:28:17.597Z,7.50
2023-12-23T08:29:24.483Z,10.00
2023-12-23T08:30:31.872Z,7.90
2023-12-23T08:31:45.251Z,7.30
2023-12-23T08:32:52.671Z,8.30
2023-12-23T08:34:00.765Z,7.90
2023-12-23T08:35:12.736Z,7.20
2023-12-23T08:36:20.847Z,10.30
2023-12-23T08:37:25.305Z,11.10
2023-12-23T08:39:56.802Z,8.10
2023-12-23T08:41:05.817Z,7.36
2023-12-23T08:42:11.340Z,6.60
2023-12-23T08:43:14.581Z,3.10
2023-12-23T08:44:37.742Z,6.20
2023-12-23T08:45:43.211Z,6.50
2023-12-23T08:46:48.475Z,6.60
2023-12-23T08:47:54.909Z,6.90
2023-12-23T08:49:00.555Z,8.20
2023-12-23T08:50:08.488Z,6.90
2023-12-23T08:51:12.229Z,8.40
2023-12-23T08:52:15.600Z,6.40
2023-12-23T08:54:43.001Z,10.00
2023-12-23T08:55:46.304Z,10.90
2023-12-23T08:56:53.674Z,10.90
2023-12-23T08:58:01.455Z,7.60
2023-12-23T08:59:19.310Z,9.00
2023-12-23T09:00:24.492Z,6.10
2023-12-23T09:01:37.023Z,7.20
2023-12-23T09:04:08.429Z,6.60
2023-12-23T09:05:13.904Z,8.80
2023-12-23T09:06:24.719Z,4.60
2023-12-23T09:07:29.329Z,8.00
2023-12-23T09:08:35.204Z,5.40
2023-12-23T09:09:44.512Z,5.60
2023-12-23T09:10:51.823Z,6.70
2023-12-23T09:12:01.429Z,6.80
2023-12-23T09:13:04.224Z,4.90
2023-12-23T09:14:07.762Z,5.91
2023-12-23T09:15:14.343Z,6.20
2023-12-23T09:16:21.977Z,4.30
2023-12-23T09:17:29.079Z,3.20
2023-12-23T09:18:34.680Z,3.60
2023-12-23T09:21:09.612Z,4.10
2023-12-23T09:22:21.160Z,7.30
2023-12-23T09:23:29.835Z,9.90
2023-12-23T09:24:40.968Z,3.80
2023-12-23T09:25:45.394Z,6.90
2023-12-23T09:26:54.209Z,4.70
2023-12-23T09:52:52.882Z,11.50
2023-12-23T09:53:58.764Z,9.00
2023-12-23T09:55:06.324Z,5.70
2023-12-23T09:56:10.982Z,5.30
2023-12-23T09:57:13.905Z,6.80
2023-12-23T09:58:16.263Z,6.09
2023-12-23T09:59:18.998Z,10.50
2023-12-23T10:00:23.303Z,7.10
2023-12-23T10:01:25.620Z,7.30
2023-12-23T10:02:28.742Z,9.70
2023-12-23T10:03:31.560Z,6.50
2023-12-23T10:04:34.778Z,7.70
2023-12-23T10:05:43.469Z,7.50
2023-12-23T10:06:46.234Z,5.70
2023-12-23T10:07:49.491Z,5.60
2023-12-23T10:08:51.814Z,6.50
2023-12-23T10:09:54.468Z,7.30
2023-12-23T10:10:57.740Z,8.80
2023-12-23T10:12:02.003Z,10.09
2023-12-23T10:13:05.054Z,10.30
2023-12-23T10:14:07.705Z,10.73
2023-12-23T10:15:11.567Z,14.40
2023-12-23T10:16:15.889Z,11.00
2023-12-23T10:17:20.711Z,10.91
2023-12-23T10:18:24.340Z,10.60
2023-12-23T10:19:26.681Z,10.10
2023-12-23T10:20:32.457Z,13.10
2023-12-23T10:21:35.003Z,11.70
2023-12-23T10:22:37.456Z,11.40
2023-12-23T10:23:39.830Z,12.20
2023-12-23T10:24:42.712Z,10.90
2023-12-23T10:25:45.256Z,12.40
2023-12-23T10:26:48.303Z,16.00
2023-12-23T10:27:54.557Z,19.30
2023-12-23T10:29:00.927Z,15.90
2023-12-23T10:30:05.453Z,16.10
2023-12-23T10:31:12.002Z,20.60
2023-12-23T10:32:17.450Z,13.10
2023-12-23T10:33:22.624Z,12.00
2023-12-23T10:34:28.935Z,13.00
2023-12-23T10:35:35.149Z,14.60
2023-12-23T10:36:43.187Z,16.60
2023-12-23T10:37:45.968Z,12.00
2023-12-23T10:38:51.903Z,12.30
2023-12-23T10:39:58.811Z,9.50
2023-12-23T10:41:14.280Z,8.30
2023-12-23T10:42:20.267Z,10.80
2023-12-23T10:43:24.372Z,10.50
2023-12-23T10:44:28.194Z,7.30
2023-12-23T10:45:33.456Z,7.30
2023-12-23T10:46:37.318Z,3.80
2023-12-23T10:47:40.402Z,7.60
2023-12-23T10:48:44.418Z,6.80
2023-12-23T10:49:49.615Z,4.80
2023-12-23T10:50:57.736Z,7.10
2023-12-23T10:52:02.161Z,7.60
2023-12-23T10:53:07.656Z,8.10
2023-12-23T10:54:11.088Z,8.60
2023-12-23T10:55:15.753Z,7.80
2023-12-23T10:56:20.723Z,7.80
2023-12-23T10:57:23.937Z,9.70
2023-12-23T10:58:28.378Z,6.90
2023-12-23T10:59:32.814Z,5.90
2023-12-23T11:00:35.458Z,7.90
2023-12-23T11:01:39.817Z,9.50
2023-12-23T11:02:42.624Z,9.10
2023-12-23T11:03:47.398Z,6.50
2023-12-23T11:04:52.870Z,8.50
2023-12-23T11:05:56.223Z,5.90
2023-12-23T11:07:00.689Z,6.50
2023-12-23T11:08:13.666Z,7.10
2023-12-23T11:09:13.097Z,5.30
2023-12-23T11:10:18.038Z,5.20
2023-12-23T11:11:21.746Z,7.70
2023-12-23T11:12:24.541Z,6.40
2023-12-23T11:13:27.403Z,5.70
2023-12-23T11:14:29.663Z,8.40
2023-12-23T11:15:32.293Z,8.40
2023-12-23T11:16:35.066Z,7.90
2023-12-23T11:17:43.584Z,9.70
2023-12-23T11:18:46.495Z,8.80
2023-12-23T11:19:48.842Z,7.82
2023-12-23T11:20:51.869Z,4.80
2023-12-23T11:23:36.994Z,6.10
2023-12-23T11:24:39.802Z,2.80
2023-12-23T11:25:42.085Z,5.90
2023-12-23T11:26:46.209Z,3.90
2023-12-23T11:28:59.189Z,6.60
2023-12-23T11:30:09.105Z,6.45
2023-12-23T11:31:11.585Z,7.40
2023-12-23T11:32:15.178Z,2.40
2023-12-23T11:33:22.033Z,3.40
2023-12-23T11:34:24.418Z,3.00
2023-12-23T11:35:26.722Z,4.70
2023-12-23T11:36:31.831Z,4.20
2023-12-23T11:37:57.302Z,6.00
2023-12-23T11:38:59.655Z,4.00
2023-12-23T11:40:03.232Z,5.80
2023-12-23T11:41:06.461Z,5.90
2023-12-23T11:42:10.236Z,4.60
2023-12-23T11:43:12.559Z,7.60
2023-12-23T11:44:15.706Z,6.10
2023-12-23T11:45:18.542Z,6.60
2023-12-23T11:46:23.440Z,5.30
2023-12-23T11:47:26.563Z,8.55
2023-12-23T11:48:28.828Z,5.10
2023-12-23T11:49:31.120Z,4.50
2023-12-23T11:50:34.260Z,3.80
2023-12-23T11:52:47.952Z,6.20
2023-12-23T11:53:50.845Z,8.27
2023-12-23T11:54:54.261Z,8.10
2023-12-23T11:55:57.259Z,8.50
2023-12-23T11:56:59.681Z,9.40
2023-12-23T11:58:02.396Z,9.60
2023-12-23T11:59:06.080Z,8.60
2023-12-23T12:00:12.222Z,13.80
2023-12-23T12:01:15.391Z,10.80
2023-12-23T12:02:17.747Z,10.40
2023-12-23T12:03:20.117Z,3.90
2023-12-23T12:04:24.941Z,3.30
2023-12-23T12:06:40.174Z,2.10
2023-12-23T12:07:43.245Z,2.00
2023-12-23T12:08:46.225Z,2.90
2023-12-23T12:09:50.709Z,4.09
2023-12-23T12:10:55.127Z,3.00
2023-12-23T12:11:57.766Z,2.50
2023-12-23T12:13:00.528Z,2.20
2023-12-23T12:14:03.709Z,3.10
2023-12-23T12:15:07.166Z,1.80
2023-12-23T12:16:10.911Z,3.50
2023-12-23T12:17:13.668Z,4.30
2023-12-23T12:18:17.511Z,4.20
2023-12-23T12:19:20.255Z,3.20
2023-12-23T12:20:24.574Z,3.10
2023-12-23T12:21:27.750Z,3.70
2023-12-23T12:22:30.386Z,2.00
2023-12-23T12:23:32.949Z,3.20
2023-12-23T12:24:35.126Z,5.70
2023-12-23T12:25:37.376Z,5.30
2023-12-23T12:26:40.619Z,7.80
2023-12-23T12:27:43.958Z,6.00
2023-12-23T12:28:47.806Z,7.00
2023-12-23T12:29:50.839Z,7.00
2023-12-23T12:30:54.293Z,9.18
2023-12-23T12:31:56.921Z,8.70
2023-12-23T12:32:59.232Z,11.10
2023-12-23T12:34:01.602Z,7.00
2023-12-23T12:35:04.428Z,8.50
2023-12-23T12:37:19.908Z,9.70
2023-12-23T12:38:24.299Z,8.90
2023-12-23T12:39:26.645Z,11.60
2023-12-23T12:40:34.468Z,9.60
2023-12-23T12:41:41.474Z,7.10
2023-12-23T12:42:48.852Z,9.70
2023-12-23T12:43:55.447Z,8.00
2023-12-23T12:45:03.094Z,10.20
2023-12-23T12:46:07.056Z,11.90
2023-12-23T12:47:09.777Z,14.00
2023-12-23T12:48:13.877Z,12.20
2023-12-23T12:49:19.919Z,12.10
2023-12-23T12:50:23.763Z,13.00
2023-12-23T12:51:25.895Z,13.50
2023-12-23T12:52:29.702Z,10.40
2023-12-23T12:53:31.993Z,12.50
2023-12-23T12:54:35.214Z,10.80
2023-12-23T12:55:37.883Z,16.00
2023-12-23T12:56:41.427Z,13.27
2023-12-23T12:57:43.710Z,11.50
2023-12-23T12:58:47.758Z,10.30
2023-12-23T12:59:50.029Z,15.20
2023-12-23T13:00:52.384Z,11.90
2023-12-23T13:01:55.189Z,9.90
2023-12-23T13:02:57.659Z,13.00
2023-12-23T13:04:00.427Z,10.00
2023-12-23T13:05:03.396Z,12.30
2023-12-23T13:06:06.313Z,12.70
2023-12-23T13:07:08.470Z,13.20
2023-12-23T13:08:11.075Z,10.40
2023-12-23T13:09:13.388Z,11.10
2023-12-23T13:10:16.445Z,13.00
2023-12-23T13:11:18.769Z,12.10
2023-12-23T13:12:21.120Z,8.40
2023-12-23T13:13:23.796Z,11.60
2023-12-23T13:14:26.532Z,8.70
2023-12-23T13:15:28.608Z,9.60
2023-12-23T13:16:31.232Z,8.70
2023-12-23T13:17:33.406Z,8.10
2023-12-23T13:18:48.998Z,7.10
2023-12-23T13:19:42.007Z,11.30
2023-12-23T13:20:44.447Z,8.30
2023-12-23T13:21:47.276Z,9.60
2023-12-23T13:22:50.256Z,12.00
2023-12-23T13:23:53.001Z,8.20
2023-12-23T13:24:55.515Z,10.90
2023-12-23T13:25:57.537Z,11.90
2023-12-23T13:26:59.851Z,8.80
2023-12-23T13:28:02.509Z,10.10
2023-12-23T13:29:05.035Z,11.10
2023-12-23T13:30:09.356Z,8.40
2023-12-23T13:31:11.900Z,9.80
2023-12-23T13:32:14.573Z,9.80
2023-12-23T13:33:17.234Z,10.70
2023-12-23T13:34:19.439Z,8.40
2023-12-23T13:35:21.772Z,11.50
2023-12-23T13:36:26.447Z,10.20
2023-12-23T13:37:30.335Z,8.50
2023-12-23T13:38:32.692Z,9.20
2023-12-23T13:39:35.858Z,7.90
2023-12-23T13:40:39.034Z,3.60
2023-12-23T13:41:41.302Z,11.80
2023-12-23T13:42:44.131Z,10.20
2023-12-23T13:43:46.820Z,12.20
2023-12-23T13:44:49.358Z,13.30
2023-12-23T13:45:51.743Z,12.60
2023-12-23T13:46:55.024Z,14.36
2023-12-23T13:47:57.918Z,8.36
2023-12-23T13:49:00.493Z,1.60
2023-12-23T13:50:03.509Z,14.20
2023-12-23T13:51:06.464Z,9.45
2023-12-23T14:08:00.234Z,19.00
2023-12-23T14:10:11.405Z,17.70
2023-12-23T14:11:13.639Z,8.30
2023-12-23T14:12:16.825Z,10.20
2023-12-23T14:13:19.648Z,12.40
2023-12-23T14:14:22.307Z,12.90
2023-12-23T14:15:24.484Z,12.40
2023-12-23T14:16:27.742Z,10.50
2023-12-23T14:17:31.150Z,13.00
2023-12-23T14:18:33.662Z,13.00
2023-12-23T14:19:36.392Z,9.50
2023-12-23T14:20:39.644Z,11.27
2023-12-23T14:21:42.015Z,10.64
2023-12-23T14:22:45.385Z,3.50
2023-12-23T14:23:47.834Z,10.50
2023-12-23T14:24:50.392Z,10.70
2023-12-23T14:25:53.045Z,7.40
2023-12-23T14:26:55.611Z,8.90
2023-12-23T14:27:58.560Z,9.80
2023-12-23T14:29:01.442Z,8.50
2023-12-23T14:30:04.552Z,9.45
2023-12-23T14:31:06.822Z,6.09
2023-12-23T14:32:09.098Z,9.30
2023-12-23T14:33:11.329Z,10.30
2023-12-23T14:34:14.778Z,7.40
2023-12-23T14:35:17.560Z,7.40
2023-12-23T14:36:20.685Z,10.50
2023-12-23T14:37:24.774Z,8.80
2023-12-23T14:38:28.162Z,9.20
2023-12-23T14:39:30.702Z,10.10
2023-12-23T14:40:34.476Z,7.60
2023-12-23T14:41:36.657Z,9.90
2023-12-23T14:42:38.777Z,1.40
2023-12-23T14:43:41.611Z,6.50
2023-12-23T14:44:47.338Z,7.20
2023-12-23T14:45:50.083Z,7.60
2023-12-23T14:46:52.994Z,9.82
2023-12-23T14:47:55.391Z,4.00
2023-12-23T14:48:57.652Z,5.80
2023-12-23T14:49:59.786Z,4.30
2023-12-23T14:51:01.999Z,6.00
2023-12-23T14:52:05.685Z,9.80
2023-12-23T14:53:07.971Z,9.40
2023-12-23T14:54:11.245Z,6.40
2023-12-23T14:55:15.538Z,7.50
2023-12-23T14:56:19.148Z,8.50
2023-12-23T14:57:21.696Z,12.60
2023-12-23T14:58:26.132Z,10.10
2023-12-23T14:59:28.753Z,10.00
2023-12-23T15:00:31.259Z,11.27
2023-12-23T15:01:36.724Z,13.40
2023-12-23T15:02:38.731Z,10.40
2023-12-23T15:03:42.019Z,9.50
2023-12-23T15:04:44.613Z,12.20
2023-12-23T15:05:47.259Z,10.60
2023-12-23T15:06:50.577Z,9.60
2023-12-23T15:07:53.490Z,9.30
2023-12-23T15:08:55.647Z,11.80
2023-12-23T15:09:57.956Z,9.10
2023-12-23T15:11:01.517Z,14.64
2023-12-23T15:12:04.266Z,11.00
2023-12-23T15:13:06.865Z,14.50
2023-12-23T15:14:09.949Z,13.00
2023-12-23T15:15:12.291Z,8.55
2023-12-23T15:16:15.315Z,11.73
2023-12-23T15:17:17.952Z,13.50
2023-12-23T15:18:20.546Z,12.60
2023-12-23T15:19:22.896Z,9.30
2023-12-23T15:20:27.052Z,8.10
2023-12-23T15:21:29.375Z,7.27
2023-12-23T15:22:31.512Z,5.60
2023-12-23T15:23:34.192Z,7.30
2023-12-23T15:24:37.104Z,10.90
2023-12-23T15:25:39.928Z,10.30